createdAt,value
2018-02-16T00:01:10.544Z,46.87
2018-02-16T00:03:38.385Z,48.50
2018-02-16T00:06:06.248Z,43.60
2018-02-16T00:08:34.160Z,50.70
2018-02-16T00:11:02.933Z,50.00
2018-02-16T00:13:30.812Z,53.10
2018-02-16T00:15:58.669Z,50.87
2018-02-16T00:18:26.509Z,54.93
2018-02-16T00:20:54.403Z,59.50
2018-02-16T00:23:22.306Z,50.73
2018-02-16T00:25:50.289Z,55.30
2018-02-16T00:28:18.230Z,54.97
2018-02-16T00:30:46.188Z,62.13
2018-02-16T00:33:14.666Z,57.27
2018-02-16T00:35:42.565Z,58.23
2018-02-16T00:38:10.453Z,62.60
2018-02-16T00:40:38.303Z,54.20
2018-02-16T00:43:06.199Z,51.80
2018-02-16T00:45:34.304Z,52.20
2018-02-16T00:48:02.295Z,49.97
2018-02-16T00:50:30.216Z,52.00
2018-02-16T00:52:58.111Z,52.37
2018-02-16T00:55:26.015Z,49.27
2018-02-16T00:57:53.904Z,52.13
2018-02-16T01:00:21.740Z,50.83
2018-02-16T01:02:49.684Z,53.30
2018-02-16T01:05:17.559Z,50.73
2018-02-16T01:07:45.539Z,51.67
2018-02-16T01:10:13.438Z,52.80
2018-02-16T01:12:41.351Z,56.93
2018-02-16T01:15:09.283Z,53.47
2018-02-16T01:17:37.276Z,54.47
2018-02-16T01:20:05.240Z,54.50
2018-02-16T01:22:33.089Z,56.97
2018-02-16T01:25:00.955Z,53.03
2018-02-16T01:27:28.883Z,55.47
2018-02-16T01:29:56.757Z,52.33
2018-02-16T01:32:24.640Z,54.27
2018-02-16T01:34:52.496Z,59.83
2018-02-16T01:37:20.342Z,57.60
2018-02-16T01:39:48.320Z,59.37
2018-02-16T01:42:16.175Z,55.13
2018-02-16T01:44:44.015Z,57.27
2018-02-16T01:47:11.891Z,63.03
2018-02-16T01:49:45.884Z,54.10
2018-02-16T01:52:13.756Z,59.57
2018-02-16T01:54:41.579Z,61.57
2018-02-16T01:57:09.421Z,56.03
2018-02-16T01:59:37.284Z,61.70
2018-02-16T02:02:05.145Z,58.70
2018-02-16T02:04:32.984Z,60.13
2018-02-16T02:07:00.847Z,54.60
2018-02-16T02:09:28.701Z,57.90
2018-02-16T02:11:56.543Z,55.17
2018-02-16T02:14:24.434Z,55.03
2018-02-16T02:16:52.315Z,59.23
2018-02-16T02:19:20.167Z,58.73
2018-02-16T02:21:48.044Z,56.37
2018-02-16T02:24:15.956Z,61.10
2018-02-16T02:26:43.852Z,53.47
2018-02-16T02:29:11.723Z,56.27
2018-02-16T02:31:39.580Z,56.57
2018-02-16T02:34:07.499Z,63.97
2018-02-16T02:36:35.368Z,61.63
2018-02-16T02:39:03.248Z,55.30
2018-02-16T02:41:31.132Z,60.67
2018-02-16T02:43:59.048Z,57.73
2018-02-16T02:46:26.900Z,55.70
2018-02-16T02:48:54.766Z,55.63
2018-02-16T02:51:22.647Z,57.50
2018-02-16T02:53:50.507Z,61.27
2018-02-16T02:56:18.388Z,55.40
2018-02-16T02:58:46.240Z,66.37
2018-02-16T03:01:14.093Z,54.80
2018-02-16T03:03:42.613Z,62.60
2018-02-16T03:06:10.460Z,58.60
2018-02-16T03:08:38.373Z,59.60
2018-02-16T03:11:06.275Z,66.03
2018-02-16T03:13:34.131Z,74.50
2018-02-16T03:16:02.009Z,62.50
2018-02-16T03:18:29.892Z,61.97
2018-02-16T03:20:57.793Z,63.47
2018-02-16T03:23:25.649Z,57.60
2018-02-16T03:25:53.561Z,64.60
2018-02-16T03:28:21.409Z,63.63
2018-02-16T03:30:49.295Z,65.93
2018-02-16T03:33:17.177Z,67.13
2018-02-16T03:35:45.145Z,56.53
2018-02-16T03:38:12.979Z,55.77
2018-02-16T03:40:40.872Z,61.17
2018-02-16T03:43:08.740Z,60.07
2018-02-16T03:45:36.592Z,60.17
2018-02-16T03:48:04.498Z,57.50
2018-02-16T03:50:32.424Z,57.60
2018-02-16T03:53:00.284Z,60.40
2018-02-16T03:55:28.148Z,65.90
2018-02-16T03:57:56.033Z,65.50
2018-02-16T04:00:23.901Z,66.43
2018-02-16T04:02:51.792Z,72.47
2018-02-16T04:05:19.628Z,65.77
2018-02-16T04:07:47.479Z,76.60
2018-02-16T04:10:15.370Z,65.93
2018-02-16T04:12:43.207Z,65.23
2018-02-16T04:15:11.040Z,74.27
2018-02-16T04:17:38.930Z,68.83
2018-02-16T04:20:06.805Z,73.57
2018-02-16T04:22:34.657Z,70.87
2018-02-16T04:25:02.540Z,70.90
2018-02-16T04:27:30.406Z,68.40
2018-02-16T04:29:58.284Z,75.63
2018-02-16T04:32:26.159Z,78.30
2018-02-16T04:34:54.040Z,75.47
2018-02-16T04:37:21.957Z,77.43
2018-02-16T04:39:49.808Z,84.53
2018-02-16T04:42:17.696Z,82.40
2018-02-16T04:44:45.553Z,87.00
2018-02-16T04:47:13.485Z,92.17
2018-02-16T04:49:41.360Z,87.77
2018-02-16T04:52:09.227Z,100.47
2018-02-16T04:54:37.080Z,105.67
2018-02-16T04:57:04.958Z,105.70
2018-02-16T04:59:32.799Z,97.57
2018-02-16T05:02:00.660Z,108.17
2018-02-16T05:04:28.523Z,113.93
2018-02-16T05:06:56.467Z,119.63
2018-02-16T05:09:24.396Z,118.87
2018-02-16T05:11:52.267Z,111.80
2018-02-16T05:14:20.159Z,110.47
2018-02-16T05:16:48.124Z,128.30
2018-02-16T05:19:16.011Z,133.20
2018-02-16T05:21:43.867Z,112.57
2018-02-16T05:24:11.722Z,119.23
2018-02-16T05:26:39.599Z,112.37
2018-02-16T05:29:07.516Z,112.10
2018-02-16T05:31:35.460Z,99.23
2018-02-16T05:34:03.331Z,110.03
2018-02-16T05:36:31.199Z,106.27
2018-02-16T05:38:59.107Z,123.13
2018-02-16T05:41:26.980Z,134.23
2018-02-16T05:43:54.829Z,129.93
2018-02-16T05:46:22.711Z,142.00
2018-02-16T05:48:50.573Z,132.57
2018-02-16T05:51:18.415Z,124.27
2018-02-16T05:53:46.283Z,140.90
2018-02-16T05:56:14.135Z,131.40
2018-02-16T05:58:42.070Z,134.83
2018-02-16T06:01:09.920Z,137.47
2018-02-16T06:03:37.771Z,143.77
2018-02-16T06:06:05.696Z,121.30
2018-02-16T06:08:33.538Z,124.53
2018-02-16T06:11:01.446Z,116.43
2018-02-16T06:13:29.311Z,111.33
2018-02-16T06:15:57.191Z,123.40
2018-02-16T06:18:25.072Z,107.37
2018-02-16T06:20:52.938Z,113.37
2018-02-16T06:23:20.836Z,107.73
2018-02-16T06:25:48.719Z,109.67
2018-02-16T06:28:16.579Z,97.63
2018-02-16T06:30:44.479Z,83.70
2018-02-16T06:33:12.338Z,82.93
2018-02-16T06:35:40.215Z,85.53
2018-02-16T06:38:08.075Z,84.80
2018-02-16T06:40:35.993Z,83.00
2018-02-16T06:43:03.850Z,83.30
2018-02-16T06:45:31.791Z,72.60
2018-02-16T06:47:59.627Z,85.53
2018-02-16T06:50:27.554Z,70.73
2018-02-16T06:52:55.436Z,67.40
2018-02-16T06:55:23.399Z,76.63
2018-02-16T06:57:51.267Z,79.60
2018-02-16T07:00:19.572Z,62.50
2018-02-16T07:02:47.426Z,67.00
2018-02-16T07:05:15.298Z,81.17
2018-02-16T07:07:43.139Z,69.03
2018-02-16T07:10:10.984Z,74.33
2018-02-16T07:12:38.841Z,76.50
2018-02-16T07:15:06.718Z,62.00
2018-02-16T07:17:35.447Z,72.10
2018-02-16T07:20:03.315Z,61.23
2018-02-16T07:22:31.176Z,57.53
2018-02-16T07:24:59.023Z,52.40
2018-02-16T07:27:26.897Z,56.47
2018-02-16T07:29:54.738Z,52.63
2018-02-16T07:32:23.476Z,50.13
2018-02-16T07:34:51.310Z,50.83
2018-02-16T07:37:19.181Z,56.90
2018-02-16T07:39:47.045Z,45.63
2018-02-16T07:42:14.903Z,50.67
2018-02-16T07:44:42.784Z,66.97
2018-02-16T07:47:10.646Z,57.40
2018-02-16T07:49:38.498Z,59.43
2018-02-16T07:52:06.372Z,46.97
2018-02-16T07:54:34.242Z,49.27
2018-02-16T07:57:02.107Z,44.07
2018-02-16T07:59:29.947Z,42.00
2018-02-16T08:01:57.794Z,43.70
2018-02-16T08:04:25.652Z,39.60
2018-02-16T08:06:53.507Z,40.43
2018-02-16T08:09:21.398Z,40.90
2018-02-16T08:11:49.243Z,38.73
2018-02-16T08:14:17.159Z,42.23
2018-02-16T08:16:45.015Z,43.20
2018-02-16T08:19:12.929Z,46.23
2018-02-16T08:21:40.893Z,44.00
2018-02-16T08:24:08.735Z,34.90
2018-02-16T08:26:36.594Z,35.73
2018-02-16T08:29:04.427Z,34.60
2018-02-16T08:31:32.291Z,39.37
2018-02-16T08:34:00.201Z,38.77
2018-02-16T08:36:28.105Z,35.93
2018-02-16T08:38:55.970Z,41.43
2018-02-16T08:41:23.876Z,35.80
2018-02-16T08:43:51.759Z,37.40
2018-02-16T08:46:19.623Z,40.30
2018-02-16T08:48:47.580Z,43.50
2018-02-16T08:51:15.464Z,37.67
2018-02-16T08:53:43.392Z,35.87
2018-02-16T08:56:11.293Z,32.60
2018-02-16T08:58:39.160Z,35.23
2018-02-16T09:01:07.018Z,37.07
2018-02-16T09:03:34.894Z,44.03
2018-02-16T09:06:02.835Z,32.30
2018-02-16T09:08:30.768Z,26.10
2018-02-16T09:10:58.656Z,26.77
2018-02-16T09:13:26.487Z,26.30
2018-02-16T09:15:54.365Z,25.43
2018-02-16T09:18:22.247Z,27.90
2018-02-16T09:20:50.132Z,32.97
2018-02-16T09:23:18.050Z,22.63
2018-02-16T09:25:45.941Z,22.77
2018-02-16T09:28:13.834Z,27.50
2018-02-16T09:30:41.671Z,19.80
2018-02-16T09:33:09.583Z,29.70
2018-02-16T09:35:37.810Z,24.80
2018-02-16T09:38:05.715Z,19.63
2018-02-16T09:40:33.607Z,29.70
2018-02-16T09:43:01.448Z,23.83
2018-02-16T09:45:29.296Z,31.60
2018-02-16T09:47:57.167Z,26.40
2018-02-16T09:50:25.080Z,35.10
2018-02-16T09:52:52.963Z,39.77
2018-02-16T09:55:21.052Z,29.13
2018-02-16T09:57:48.898Z,41.03
2018-02-16T10:00:16.910Z,33.40
2018-02-16T10:02:44.823Z,26.43
2018-02-16T10:05:12.684Z,30.73
2018-02-16T10:07:40.595Z,24.30
2018-02-16T10:10:08.488Z,31.50
2018-02-16T10:12:36.339Z,25.80
2018-02-16T10:15:04.310Z,31.63
2018-02-16T10:17:32.199Z,25.40
2018-02-16T10:20:00.105Z,28.40
2018-02-16T10:22:28.079Z,28.40
2018-02-16T10:24:56.015Z,29.33
2018-02-16T10:27:23.891Z,35.73
2018-02-16T10:29:52.003Z,32.47
2018-02-16T10:32:19.891Z,28.17
2018-02-16T10:34:47.746Z,29.40
2018-02-16T10:37:15.627Z,31.60
2018-02-16T10:39:43.509Z,33.70
2018-02-16T10:42:11.376Z,34.80
2018-02-16T10:44:39.215Z,36.10
2018-02-16T10:47:07.121Z,39.27
2018-02-16T10:49:35.074Z,28.80
2018-02-16T10:52:02.955Z,36.13
2018-02-16T10:54:31.008Z,32.73
2018-02-16T10:56:58.855Z,33.17
2018-02-16T10:59:26.772Z,26.77
2018-02-16T11:02:00.879Z,29.63
2018-02-16T11:04:47.534Z,35.60
2018-02-16T11:07:21.519Z,32.13
2018-02-16T11:09:49.359Z,30.47
2018-02-16T11:12:17.214Z,29.03
2018-02-16T11:14:45.085Z,38.23
2018-02-16T11:17:12.939Z,32.40
2018-02-16T11:19:40.775Z,30.67
2018-02-16T11:22:08.699Z,42.40
2018-02-16T11:24:36.595Z,35.03
2018-02-16T11:27:04.581Z,30.57
2018-02-16T11:29:32.458Z,33.90
2018-02-16T11:32:00.327Z,25.20
2018-02-16T11:34:28.180Z,30.40
2018-02-16T11:36:56.075Z,32.60
2018-02-16T11:39:24.069Z,28.70
2018-02-16T11:41:51.933Z,32.40
2018-02-16T11:44:19.823Z,29.70
2018-02-16T11:46:47.663Z,32.57
2018-02-16T11:49:15.534Z,32.77
2018-02-16T11:51:43.399Z,31.73
2018-02-16T11:54:11.268Z,38.13
2018-02-16T11:56:39.127Z,35.50
2018-02-16T11:59:06.965Z,38.40
2018-02-16T12:01:34.841Z,36.40
2018-02-16T12:04:02.712Z,37.97
2018-02-16T12:06:30.560Z,41.50
2018-02-16T12:08:58.424Z,29.80
2018-02-16T12:11:26.272Z,37.40
2018-02-16T12:13:54.180Z,32.70
2018-02-16T12:16:22.027Z,39.03
2018-02-16T12:18:49.884Z,37.20
2018-02-16T12:21:17.762Z,35.73
2018-02-16T12:23:45.618Z,35.73
2018-02-16T12:26:13.562Z,37.70
2018-02-16T12:28:41.412Z,32.53
2018-02-16T12:31:09.265Z,31.70
2018-02-16T12:33:37.175Z,34.50
2018-02-16T12:36:05.043Z,40.43
2018-02-16T12:38:32.897Z,37.30
2018-02-16T12:41:00.867Z,36.83
2018-02-16T12:43:28.777Z,39.40
2018-02-16T12:45:56.683Z,34.07
2018-02-16T12:48:24.564Z,31.33
2018-02-16T12:50:52.406Z,33.73
2018-02-16T12:53:20.257Z,33.00
2018-02-16T12:55:48.148Z,31.70
2018-02-16T12:58:17.057Z,34.90
2018-02-16T13:00:44.951Z,29.67
2018-02-16T13:03:12.816Z,28.47
2018-02-16T13:05:40.671Z,28.30
2018-02-16T13:08:08.569Z,30.00
2018-02-16T13:10:36.439Z,40.13
2018-02-16T13:13:04.283Z,28.10
2018-02-16T13:15:32.195Z,29.23
2018-02-16T13:18:00.129Z,24.00
2018-02-16T13:20:27.984Z,45.37
2018-02-16T13:22:55.833Z,25.20
2018-02-16T13:25:23.793Z,25.33
2018-02-16T13:27:51.652Z,23.40
2018-02-16T13:30:19.567Z,24.70
2018-02-16T13:32:47.424Z,24.83
2018-02-16T13:35:15.293Z,27.40
2018-02-16T13:37:43.185Z,27.07
2018-02-16T13:40:11.071Z,27.67
2018-02-16T13:42:38.967Z,23.73
2018-02-16T13:45:06.820Z,22.47
2018-02-16T13:47:34.693Z,26.47
2018-02-16T13:50:02.606Z,27.57
2018-02-16T13:52:30.483Z,24.67
2018-02-16T13:54:58.359Z,30.37
2018-02-16T13:57:26.255Z,22.70
2018-02-16T13:59:54.152Z,18.60
2018-02-16T14:02:22.063Z,21.97
2018-02-16T14:04:49.916Z,26.27
2018-02-16T14:07:17.792Z,23.70
2018-02-16T14:09:45.656Z,26.10
2018-02-16T14:12:13.511Z,17.03
2018-02-16T14:14:41.377Z,20.37
2018-02-16T14:17:09.230Z,16.57
2018-02-16T14:19:37.101Z,16.77
2018-02-16T14:22:04.963Z,17.87
2018-02-16T14:24:32.819Z,15.80
2018-02-16T14:27:00.687Z,14.40
2018-02-16T14:29:28.550Z,16.93
2018-02-16T14:31:56.443Z,19.87
2018-02-16T14:34:24.727Z,13.23
2018-02-16T14:36:52.587Z,15.07
2018-02-16T14:39:20.473Z,17.83
2018-02-16T14:41:48.334Z,21.03
2018-02-16T14:44:16.622Z,18.40
2018-02-16T14:46:44.479Z,27.83
2018-02-16T14:49:12.372Z,17.10
2018-02-16T14:51:40.277Z,25.40
2018-02-16T14:54:08.150Z,21.40
2018-02-16T14:56:36.054Z,16.23
2018-02-16T14:59:03.969Z,17.10
2018-02-16T15:01:31.879Z,24.63
2018-02-16T15:03:59.809Z,19.27
2018-02-16T15:06:27.658Z,24.23
2018-02-16T15:08:55.564Z,19.67
2018-02-16T15:11:23.481Z,17.00
2018-02-16T15:13:51.331Z,21.33
2018-02-16T15:16:19.247Z,24.13
2018-02-16T15:18:47.112Z,27.77
2018-02-16T15:21:15.025Z,24.90
2018-02-16T15:23:42.921Z,25.10
2018-02-16T15:26:10.841Z,21.90
2018-02-16T15:28:38.700Z,20.47
2018-02-16T15:31:06.546Z,28.07
2018-02-16T15:33:34.435Z,26.40
2018-02-16T15:36:02.282Z,23.13
2018-02-16T15:38:30.148Z,21.27
2018-02-16T15:40:58.091Z,21.63
2018-02-16T15:43:25.988Z,25.63
2018-02-16T15:45:53.851Z,20.57
2018-02-16T15:48:21.759Z,24.73
2018-02-16T15:50:49.606Z,27.67
2018-02-16T15:53:17.498Z,26.03
2018-02-16T15:55:45.357Z,30.00
2018-02-16T15:58:13.206Z,30.03
2018-02-16T16:00:41.052Z,20.47
2018-02-16T16:03:08.962Z,32.80
2018-02-16T16:05:36.833Z,22.87
2018-02-16T16:08:04.684Z,31.17
2018-02-16T16:10:32.569Z,27.40
2018-02-16T16:13:00.415Z,32.83
2018-02-16T16:15:28.273Z,29.70
2018-02-16T16:17:56.218Z,31.53
2018-02-16T16:20:24.073Z,31.40
2018-02-16T16:22:52.893Z,30.37
2018-02-16T16:25:20.779Z,28.23
2018-02-16T16:27:48.615Z,29.00
2018-02-16T16:30:16.519Z,24.30
2018-02-16T16:32:44.384Z,30.37
2018-02-16T16:35:12.236Z,28.20
2018-02-16T16:37:40.137Z,29.43
2018-02-16T16:40:07.992Z,24.70
2018-02-16T16:42:35.863Z,25.53
2018-02-16T16:45:03.773Z,26.30
2018-02-16T16:47:31.649Z,32.63
2018-02-16T16:49:59.523Z,23.43
2018-02-16T16:52:27.433Z,26.63
2018-02-16T16:54:55.315Z,27.67
2018-02-16T16:57:23.220Z,29.23
2018-02-16T16:59:51.083Z,34.37
2018-02-16T17:02:19.021Z,28.73
2018-02-16T17:04:46.889Z,27.63
2018-02-16T17:07:14.814Z,26.97
2018-02-16T17:09:42.649Z,29.60
2018-02-16T17:12:10.498Z,33.23
2018-02-16T17:14:38.393Z,33.80
2018-02-16T17:17:06.228Z,30.60
2018-02-16T17:19:34.158Z,25.30
2018-02-16T17:22:02.038Z,26.17
2018-02-16T17:24:29.900Z,34.67
2018-02-16T17:26:57.790Z,27.57
2018-02-16T17:32:03.590Z,34.90
2018-02-16T17:34:31.457Z,37.03
2018-02-16T17:36:59.320Z,29.50
2018-02-16T17:39:27.258Z,31.27
2018-02-16T17:41:55.147Z,28.43
2018-02-16T17:44:23.427Z,31.80
2018-02-16T17:46:51.355Z,24.50
2018-02-16T17:49:20.132Z,27.23
2018-02-16T17:51:48.019Z,26.73
2018-02-16T17:54:15.900Z,31.50
2018-02-16T17:56:43.773Z,48.17
2018-02-16T17:59:11.615Z,36.00
2018-02-16T18:01:39.519Z,40.80
2018-02-16T18:04:07.357Z,29.43
2018-02-16T18:06:35.214Z,34.57
2018-02-16T18:09:03.111Z,32.33
2018-02-16T18:11:30.995Z,29.30
2018-02-16T18:13:58.965Z,28.90
2018-02-16T18:16:26.841Z,31.30
2018-02-16T18:18:54.711Z,38.73
2018-02-16T18:21:22.606Z,31.37
2018-02-16T18:23:50.456Z,43.20
2018-02-16T18:26:18.364Z,32.37
2018-02-16T18:28:46.205Z,37.53
2018-02-16T18:31:14.074Z,29.73
2018-02-16T18:33:41.946Z,43.80
2018-02-16T18:36:09.837Z,42.90
2018-02-16T18:38:37.725Z,34.57
2018-02-16T18:41:05.627Z,33.33
2018-02-16T18:43:33.527Z,35.87
2018-02-16T18:46:01.379Z,50.93
2018-02-16T18:48:29.293Z,34.60
2018-02-16T18:50:57.478Z,36.83
2018-02-16T18:53:25.407Z,51.07
2018-02-16T18:55:53.310Z,33.83
2018-02-16T18:58:21.152Z,35.40
2018-02-16T19:00:49.005Z,38.77
2018-02-16T19:03:16.904Z,32.60
2018-02-16T19:05:44.756Z,41.53
2018-02-16T19:08:12.635Z,38.63
2018-02-16T19:10:40.557Z,37.83
2018-02-16T19:13:08.464Z,35.23
2018-02-16T19:15:36.344Z,37.73
2018-02-16T19:18:04.224Z,37.27
2018-02-16T19:20:32.213Z,41.67
2018-02-16T19:23:00.119Z,40.87
2018-02-16T19:25:28.027Z,35.63
2018-02-16T19:27:55.890Z,37.10
2018-02-16T19:30:23.765Z,39.10
2018-02-16T19:32:51.696Z,39.40
2018-02-16T19:35:19.567Z,35.80
2018-02-16T19:37:47.458Z,33.70
2018-02-16T19:40:15.303Z,42.37
2018-02-16T19:42:43.336Z,36.90
2018-02-16T19:45:11.515Z,45.13
2018-02-16T19:47:39.800Z,37.03
2018-02-16T19:50:07.735Z,41.33
2018-02-16T19:52:35.635Z,37.03
2018-02-16T19:55:03.566Z,38.87
2018-02-16T19:57:31.455Z,39.23
2018-02-16T19:59:59.309Z,40.27
2018-02-16T20:02:27.204Z,38.10
2018-02-16T20:04:55.180Z,49.63
2018-02-16T20:07:23.483Z,48.30
2018-02-16T20:09:51.404Z,41.37
2018-02-16T20:12:19.495Z,38.80
2018-02-16T20:14:47.591Z,33.23
2018-02-16T20:17:15.494Z,45.10
2018-02-16T20:19:43.442Z,42.60
2018-02-16T20:22:11.354Z,40.37
2018-02-16T20:24:39.250Z,44.73
2018-02-16T20:27:07.409Z,43.77
2018-02-16T20:29:35.739Z,46.73
2018-02-16T20:32:03.675Z,40.17
2018-02-16T20:34:31.607Z,37.50
2018-02-16T20:36:59.933Z,44.30
2018-02-16T20:39:27.879Z,38.83
2018-02-16T20:41:59.462Z,36.43
2018-02-16T20:44:27.364Z,44.63
2018-02-16T20:46:55.223Z,38.90
2018-02-16T20:49:23.156Z,41.97
2018-02-16T20:51:51.087Z,46.37
2018-02-16T20:54:19.016Z,40.93
2018-02-16T20:56:47.044Z,40.03
2018-02-16T20:59:14.994Z,43.03
2018-02-16T21:01:42.873Z,40.37
2018-02-16T21:04:10.715Z,39.20
2018-02-16T21:06:38.607Z,43.23
2018-02-16T21:09:06.465Z,48.00
2018-02-16T21:11:34.320Z,35.40
2018-02-16T21:14:02.192Z,50.37
2018-02-16T21:16:30.101Z,43.20
2018-02-16T21:18:58.026Z,42.10
2018-02-16T21:21:25.916Z,43.73
2018-02-16T21:23:53.816Z,46.30
2018-02-16T21:26:21.683Z,45.50
2018-02-16T21:28:49.589Z,40.03
2018-02-16T21:31:17.483Z,38.73
2018-02-16T21:33:45.318Z,39.93
2018-02-16T21:36:13.224Z,44.70
2018-02-16T21:38:41.095Z,45.60
2018-02-16T21:41:08.988Z,48.63
2018-02-16T21:43:36.878Z,37.73
2018-02-16T21:46:04.839Z,47.13
2018-02-16T21:48:32.719Z,38.60
2018-02-16T21:51:00.620Z,41.37
2018-02-16T21:53:28.494Z,39.50
2018-02-16T21:55:56.373Z,40.37
2018-02-16T21:58:24.253Z,46.90
2018-02-16T22:00:52.097Z,48.13
2018-02-16T22:03:19.972Z,42.13
2018-02-16T22:05:47.967Z,40.33
2018-02-16T22:08:15.860Z,57.03
2018-02-16T22:10:43.738Z,45.77
2018-02-16T22:13:11.720Z,35.70
2018-02-16T22:15:39.579Z,47.40
2018-02-16T22:18:07.435Z,42.60
2018-02-16T22:20:35.318Z,38.07
2018-02-16T22:23:03.164Z,43.10
2018-02-16T22:25:31.003Z,44.77
2018-02-16T22:27:58.903Z,52.07
2018-02-16T22:30:26.807Z,44.57
2018-02-16T22:32:54.665Z,48.53
2018-02-16T22:35:22.574Z,50.77
2018-02-16T22:37:50.423Z,39.77
2018-02-16T22:40:18.303Z,38.20
2018-02-16T22:42:46.244Z,41.03
2018-02-16T22:45:14.131Z,50.83
2018-02-16T22:47:42.224Z,41.33
2018-02-16T22:50:10.079Z,39.03
2018-02-16T22:52:37.943Z,32.50
2018-02-16T22:55:05.808Z,46.43
2018-02-16T22:57:33.647Z,46.50
2018-02-16T23:00:01.523Z,54.60
2018-02-16T23:02:29.398Z,46.07
2018-02-16T23:04:57.327Z,43.00
2018-02-16T23:07:25.283Z,51.20
2018-02-16T23:09:53.159Z,48.77
2018-02-16T23:12:21.110Z,42.33
2018-02-16T23:14:48.975Z,42.80
2018-02-16T23:17:16.852Z,44.40
2018-02-16T23:19:44.702Z,41.00
2018-02-16T23:22:12.557Z,40.90
2018-02-16T23:24:40.435Z,41.93
2018-02-16T23:27:08.355Z,43.17
2018-02-16T23:29:36.222Z,44.20
2018-02-16T23:32:04.065Z,38.93
2018-02-16T23:34:31.911Z,42.43
2018-02-16T23:36:59.780Z,44.27
2018-02-16T23:39:28.687Z,41.00
2018-02-16T23:41:56.562Z,37.73
2018-02-16T23:44:25.525Z,51.90
2018-02-16T23:46:53.378Z,41.40
2018-02-16T23:49:21.247Z,39.43
2018-02-16T23:51:50.119Z,32.27
2018-02-16T23:54:18.008Z,48.60
2018-02-16T23:56:45.870Z,34.37
2018-02-16T23:59:13.765Z,47.60
